createdAt,value
2019-03-31T00:02:00.021Z,4.00
2019-03-31T00:04:31.499Z,4.00
2019-03-31T00:07:03.459Z,4.00
2019-03-31T00:09:35.125Z,4.00
2019-03-31T00:12:06.779Z,3.90
2019-03-31T00:14:38.408Z,3.90
2019-03-31T00:17:10.161Z,3.90
2019-03-31T00:19:41.543Z,3.90
2019-03-31T00:22:13.103Z,3.90
2019-03-31T00:24:44.526Z,3.80
2019-03-31T00:27:16.260Z,3.70
2019-03-31T00:29:47.667Z,3.60
2019-03-31T00:32:19.595Z,3.60
2019-03-31T00:34:51.228Z,3.60
2019-03-31T00:37:22.683Z,3.60
2019-03-31T00:39:54.281Z,3.60
2019-03-31T00:42:25.740Z,3.60
2019-03-31T00:44:57.463Z,3.60
2019-03-31T00:47:29.215Z,3.70
2019-03-31T00:50:00.729Z,3.70
2019-03-31T00:52:32.185Z,3.50
2019-03-31T00:55:03.617Z,3.50
2019-03-31T00:57:35.309Z,3.50
2019-03-31T01:00:09.494Z,3.50
2019-03-31T01:02:41.107Z,3.50
2019-03-31T01:05:12.730Z,3.40
2019-03-31T01:07:44.411Z,3.40
2019-03-31T01:10:16.602Z,3.30
2019-03-31T01:12:48.311Z,3.30
2019-03-31T01:15:23.360Z,3.20
2019-03-31T01:17:55.074Z,3.20
2019-03-31T01:20:26.686Z,3.10
2019-03-31T01:22:58.321Z,3.20
2019-03-31T01:25:29.772Z,3.10
2019-03-31T01:28:01.789Z,3.00
2019-03-31T01:30:33.283Z,3.00
2019-03-31T01:33:05.105Z,2.90
2019-03-31T01:35:36.637Z,3.00
2019-03-31T01:38:08.510Z,3.00
2019-03-31T01:40:40.285Z,2.90
2019-03-31T01:43:11.712Z,2.90
2019-03-31T01:45:43.334Z,2.80
2019-03-31T01:48:14.745Z,2.80
2019-03-31T01:50:46.689Z,2.70
2019-03-31T01:53:18.396Z,2.70
2019-03-31T01:55:49.885Z,2.70
2019-03-31T01:58:21.375Z,2.70
2019-03-31T02:00:58.002Z,2.60
2019-03-31T02:03:29.439Z,2.70
2019-03-31T02:06:00.830Z,2.60
2019-03-31T02:08:32.542Z,2.60
2019-03-31T02:11:04.040Z,2.60
2019-03-31T02:13:35.545Z,2.60
2019-03-31T02:16:07.578Z,2.60
2019-03-31T02:18:39.412Z,2.50
2019-03-31T02:21:11.106Z,2.50
2019-03-31T02:23:42.599Z,2.50
2019-03-31T02:26:14.046Z,2.40
2019-03-31T02:28:45.504Z,2.40
2019-03-31T02:31:16.908Z,2.40
2019-03-31T02:33:48.530Z,2.30
2019-03-31T02:36:19.947Z,2.30
2019-03-31T02:38:54.628Z,2.30
2019-03-31T02:41:26.078Z,2.30
2019-03-31T02:43:57.558Z,2.30
2019-03-31T02:46:29.000Z,2.20
2019-03-31T02:49:00.532Z,2.30
2019-03-31T02:51:32.580Z,2.30
2019-03-31T02:54:03.994Z,2.30
2019-03-31T02:56:37.258Z,2.30
2019-03-31T02:59:09.628Z,2.40
2019-03-31T03:01:42.081Z,2.30
2019-03-31T03:04:15.021Z,2.20
2019-03-31T03:06:47.138Z,2.20
2019-03-31T03:09:19.334Z,2.10
2019-03-31T03:11:52.611Z,2.10
2019-03-31T03:14:26.163Z,2.00
2019-03-31T03:16:57.692Z,2.00
2019-03-31T03:19:29.117Z,1.90
2019-03-31T03:22:00.882Z,1.90
2019-03-31T03:24:32.549Z,1.90
2019-03-31T03:27:03.985Z,1.90
2019-03-31T03:29:35.701Z,1.90
2019-03-31T03:32:07.185Z,1.80
2019-03-31T03:34:38.621Z,1.70
2019-03-31T03:37:10.093Z,1.70
2019-03-31T03:39:41.729Z,1.70
2019-03-31T03:42:13.207Z,1.70
2019-03-31T03:44:44.770Z,1.60
2019-03-31T03:47:16.284Z,1.60
2019-03-31T03:49:47.732Z,1.70
2019-03-31T03:52:19.465Z,1.60
2019-03-31T03:54:50.875Z,1.70
2019-03-31T03:57:22.726Z,1.70
2019-03-31T03:59:54.266Z,1.60
2019-03-31T04:02:25.912Z,1.50
2019-03-31T04:04:57.820Z,1.40
2019-03-31T04:07:29.245Z,1.40
2019-03-31T04:10:01.374Z,1.40
2019-03-31T04:12:32.772Z,1.40
2019-03-31T04:15:04.248Z,1.40
2019-03-31T04:17:35.808Z,1.40
2019-03-31T04:20:07.470Z,1.40
2019-03-31T04:22:38.869Z,1.30
2019-03-31T04:25:10.360Z,1.30
2019-03-31T04:27:41.887Z,1.40
2019-03-31T04:30:13.730Z,1.40
2019-03-31T04:32:45.178Z,1.40
2019-03-31T04:35:16.816Z,1.40
2019-03-31T04:37:48.241Z,1.30
2019-03-31T04:40:19.739Z,1.20
2019-03-31T04:42:51.149Z,1.20
2019-03-31T04:45:22.795Z,1.20
2019-03-31T04:47:54.212Z,1.10
2019-03-31T04:50:25.781Z,1.20
2019-03-31T04:52:57.248Z,1.20
2019-03-31T04:55:28.756Z,1.10
2019-03-31T04:58:00.200Z,1.10
2019-03-31T05:00:31.701Z,1.10
2019-03-31T05:03:03.446Z,1.10
2019-03-31T05:05:34.872Z,1.10
2019-03-31T05:08:06.317Z,1.10
2019-03-31T05:10:37.796Z,1.10
2019-03-31T05:13:09.845Z,1.10
2019-03-31T05:15:41.257Z,1.10
2019-03-31T05:18:12.757Z,1.10
2019-03-31T05:20:44.231Z,1.20
2019-03-31T05:23:15.943Z,1.30
2019-03-31T05:25:47.341Z,1.30
2019-03-31T05:28:18.908Z,1.30
2019-03-31T05:30:50.368Z,1.40
2019-03-31T05:33:21.944Z,1.40
2019-03-31T05:35:54.106Z,1.50
2019-03-31T05:38:25.921Z,1.60
2019-03-31T05:40:57.392Z,1.80
2019-03-31T05:43:28.896Z,1.90
2019-03-31T05:46:00.330Z,1.90
2019-03-31T05:48:31.826Z,2.00
2019-03-31T05:51:03.567Z,2.10
2019-03-31T05:53:35.030Z,2.20
2019-03-31T05:56:06.516Z,2.20
2019-03-31T05:58:37.983Z,2.30
2019-03-31T06:01:09.494Z,2.40
2019-03-31T06:03:40.890Z,2.40
2019-03-31T06:06:12.318Z,2.30
2019-03-31T06:08:43.984Z,2.30
2019-03-31T06:11:15.450Z,2.50
2019-03-31T06:13:46.986Z,2.60
2019-03-31T06:16:18.441Z,2.80
2019-03-31T06:18:49.988Z,2.80
2019-03-31T06:21:21.486Z,2.80
2019-03-31T06:23:54.290Z,2.90
2019-03-31T06:26:26.052Z,2.90
2019-03-31T06:28:57.582Z,3.00
2019-03-31T06:31:29.194Z,3.20
2019-03-31T06:34:00.651Z,3.20
2019-03-31T06:36:32.078Z,3.30
2019-03-31T06:39:05.754Z,3.50
2019-03-31T06:41:37.161Z,3.80
2019-03-31T06:44:08.626Z,4.20
2019-03-31T06:46:40.540Z,4.20
2019-03-31T06:49:12.012Z,4.50
2019-03-31T06:51:43.472Z,4.80
2019-03-31T06:54:17.770Z,4.70
2019-03-31T06:56:49.179Z,5.00
2019-03-31T06:59:20.657Z,5.30
2019-03-31T07:01:52.147Z,5.40
2019-03-31T07:04:23.601Z,5.50
2019-03-31T07:06:55.330Z,5.90
2019-03-31T07:09:27.100Z,6.30
2019-03-31T07:11:58.547Z,6.70
2019-03-31T07:14:30.341Z,6.90
2019-03-31T07:17:02.422Z,7.10
2019-03-31T07:19:34.122Z,7.30
2019-03-31T07:22:05.693Z,7.30
2019-03-31T07:24:37.133Z,8.20
2019-03-31T07:27:08.580Z,7.50
2019-03-31T07:29:40.213Z,7.20
2019-03-31T07:32:11.977Z,7.40
2019-03-31T07:34:43.452Z,8.00
2019-03-31T07:37:15.010Z,8.40
2019-03-31T07:39:46.718Z,9.20
2019-03-31T07:42:18.429Z,9.30
2019-03-31T07:44:49.838Z,9.50
2019-03-31T07:47:21.565Z,9.20
2019-03-31T07:49:54.655Z,9.00
2019-03-31T07:52:26.074Z,10.10
2019-03-31T07:54:57.615Z,10.90
2019-03-31T07:57:29.160Z,10.50
2019-03-31T08:00:00.604Z,10.90
2019-03-31T08:02:32.280Z,11.50
2019-03-31T08:05:07.315Z,11.80
2019-03-31T08:07:38.847Z,11.80
2019-03-31T08:10:12.050Z,11.50
2019-03-31T08:12:44.456Z,11.50
2019-03-31T08:15:16.549Z,11.70
2019-03-31T08:17:48.331Z,11.50
2019-03-31T08:20:20.609Z,11.60
2019-03-31T08:22:52.349Z,11.90
2019-03-31T08:25:23.811Z,12.40
2019-03-31T08:27:55.701Z,13.10
2019-03-31T08:30:27.198Z,12.80
2019-03-31T08:32:58.594Z,13.20
2019-03-31T08:35:30.543Z,13.50
2019-03-31T08:38:02.357Z,13.00
2019-03-31T08:40:33.771Z,13.00
2019-03-31T08:43:05.514Z,13.20
2019-03-31T08:45:37.264Z,13.60
2019-03-31T08:48:08.983Z,14.20
2019-03-31T08:50:40.773Z,14.60
2019-03-31T08:53:12.693Z,14.60
2019-03-31T08:55:44.359Z,15.00
2019-03-31T08:58:15.915Z,15.60
2019-03-31T09:00:55.109Z,15.50
2019-03-31T09:03:26.605Z,15.50
2019-03-31T09:06:02.001Z,15.10
2019-03-31T09:11:11.046Z,15.70
2019-03-31T09:13:42.595Z,16.50
2019-03-31T09:16:14.297Z,16.70
2019-03-31T09:18:45.794Z,16.40
2019-03-31T09:21:17.309Z,16.70
2019-03-31T09:23:48.787Z,16.80
2019-03-31T09:26:20.480Z,16.90
2019-03-31T09:28:51.939Z,17.10
2019-03-31T09:31:23.437Z,17.80
2019-03-31T09:33:55.149Z,17.20
2019-03-31T09:36:26.699Z,17.20
2019-03-31T09:38:58.637Z,17.60
2019-03-31T09:41:30.119Z,18.20
2019-03-31T09:44:01.591Z,18.90
2019-03-31T09:46:33.045Z,18.80
2019-03-31T09:49:04.727Z,19.10
2019-03-31T09:51:36.759Z,19.60
2019-03-31T09:54:08.781Z,19.50
2019-03-31T09:56:40.293Z,19.30
2019-03-31T09:59:11.738Z,18.80
2019-03-31T10:01:43.555Z,19.60
2019-03-31T10:04:15.669Z,19.90
2019-03-31T10:06:47.297Z,19.30
2019-03-31T10:09:19.168Z,19.60
2019-03-31T10:11:51.178Z,19.80
2019-03-31T10:14:22.821Z,20.00
2019-03-31T10:16:57.709Z,20.20
2019-03-31T10:19:28.786Z,20.20
2019-03-31T10:22:00.503Z,20.10
2019-03-31T10:24:32.219Z,20.00
2019-03-31T10:27:03.868Z,19.70
2019-03-31T10:29:35.874Z,20.10
2019-03-31T10:32:07.624Z,20.10
2019-03-31T10:34:39.756Z,19.60
2019-03-31T10:37:11.827Z,20.00
2019-03-31T10:39:44.024Z,19.90
2019-03-31T10:42:15.743Z,20.70
2019-03-31T10:44:47.984Z,21.40
2019-03-31T10:47:20.053Z,21.20
2019-03-31T10:49:51.901Z,21.00
2019-03-31T10:52:23.688Z,20.70
2019-03-31T10:54:55.309Z,20.90
2019-03-31T10:57:27.084Z,20.70
2019-03-31T10:59:59.091Z,20.00
2019-03-31T11:02:30.905Z,20.80
2019-03-31T11:05:02.883Z,21.80
2019-03-31T11:07:34.568Z,20.90
2019-03-31T11:10:06.378Z,21.50
2019-03-31T11:12:38.219Z,21.90
2019-03-31T11:15:10.026Z,21.50
2019-03-31T11:17:41.775Z,22.00
2019-03-31T11:20:13.396Z,22.10
2019-03-31T11:22:55.779Z,21.30
2019-03-31T11:25:29.358Z,21.40
2019-03-31T11:28:00.580Z,21.30
2019-03-31T11:30:32.351Z,21.50
2019-03-31T11:33:07.251Z,21.30
2019-03-31T11:35:37.183Z,21.30
2019-03-31T11:38:08.891Z,21.10
2019-03-31T11:40:40.570Z,20.80
2019-03-31T11:43:12.315Z,21.00
2019-03-31T11:45:44.203Z,21.20
2019-03-31T11:48:16.119Z,20.50
2019-03-31T11:50:47.922Z,20.50
2019-03-31T11:53:19.642Z,20.70
2019-03-31T11:55:51.344Z,21.00
2019-03-31T11:58:23.051Z,21.10
2019-03-31T12:00:57.191Z,21.20
2019-03-31T12:03:30.916Z,21.00
2019-03-31T12:06:02.099Z,20.80
2019-03-31T12:08:33.891Z,20.60
2019-03-31T12:11:05.460Z,20.10
2019-03-31T12:13:37.209Z,19.80
2019-03-31T12:16:08.952Z,20.00
2019-03-31T12:18:41.050Z,20.30
2019-03-31T12:21:12.783Z,20.60
2019-03-31T12:23:44.833Z,20.80
2019-03-31T12:26:16.856Z,20.80
2019-03-31T12:28:48.847Z,20.60
2019-03-31T12:31:20.897Z,20.40
2019-03-31T12:33:52.324Z,20.20
2019-03-31T12:36:24.436Z,20.50
2019-03-31T12:38:56.242Z,20.20
2019-03-31T12:41:28.013Z,20.20
2019-03-31T12:43:59.784Z,20.20
2019-03-31T12:46:31.339Z,19.40
2019-03-31T12:49:02.963Z,19.30
2019-03-31T12:51:34.455Z,19.00
2019-03-31T12:54:06.111Z,19.00
2019-03-31T12:56:37.864Z,19.50
2019-03-31T12:59:09.263Z,19.80
2019-03-31T13:01:40.718Z,19.80
2019-03-31T13:04:12.476Z,19.80
2019-03-31T13:06:44.178Z,19.60
2019-03-31T13:09:15.663Z,19.40
2019-03-31T13:11:50.310Z,19.30
2019-03-31T13:14:20.435Z,19.70
2019-03-31T13:16:52.143Z,19.80
2019-03-31T13:19:24.070Z,19.90
2019-03-31T13:21:58.550Z,20.20
2019-03-31T13:24:30.363Z,20.30
2019-03-31T13:27:01.932Z,20.40
2019-03-31T13:29:33.327Z,19.90
2019-03-31T13:32:05.134Z,19.40
2019-03-31T13:34:37.069Z,19.20
2019-03-31T13:37:09.250Z,19.00
2019-03-31T13:39:41.290Z,19.10
2019-03-31T13:42:13.004Z,19.40
2019-03-31T13:44:44.522Z,19.20
2019-03-31T13:47:16.208Z,18.90
2019-03-31T13:49:47.859Z,18.70
2019-03-31T13:52:19.966Z,18.80
2019-03-31T13:54:51.461Z,18.50
2019-03-31T13:57:23.831Z,18.20
2019-03-31T13:59:56.038Z,18.20
2019-03-31T14:02:27.513Z,18.10
2019-03-31T14:04:59.146Z,18.30
2019-03-31T14:07:31.215Z,18.30
2019-03-31T14:10:02.933Z,18.40
2019-03-31T14:12:34.492Z,18.20
2019-03-31T14:15:18.519Z,18.10
2019-03-31T14:17:39.951Z,18.00
2019-03-31T14:20:11.775Z,17.90
2019-03-31T14:22:43.258Z,17.70
2019-03-31T14:25:15.095Z,17.80
2019-03-31T14:27:46.542Z,17.90
2019-03-31T14:30:18.212Z,17.90
2019-03-31T14:32:49.926Z,17.90
2019-03-31T14:35:21.984Z,18.00
2019-03-31T14:37:55.260Z,18.00
2019-03-31T14:40:26.958Z,18.00
2019-03-31T14:42:59.232Z,17.90
2019-03-31T14:45:35.997Z,18.00
2019-03-31T14:48:07.996Z,18.00
2019-03-31T14:50:42.491Z,18.00
2019-03-31T14:53:14.237Z,18.10
2019-03-31T14:55:46.000Z,18.00
2019-03-31T14:58:17.565Z,18.00
2019-03-31T15:00:49.139Z,17.90
2019-03-31T15:03:20.603Z,17.90
2019-03-31T15:05:52.143Z,17.90
2019-03-31T15:08:23.872Z,17.90
2019-03-31T15:10:55.393Z,17.80
2019-03-31T15:13:27.024Z,17.70
2019-03-31T15:15:58.778Z,17.60
2019-03-31T15:18:30.348Z,17.60
2019-03-31T15:21:02.154Z,17.50
2019-03-31T15:23:33.628Z,17.40
2019-03-31T15:26:05.330Z,17.30
2019-03-31T15:28:37.156Z,17.30
2019-03-31T15:31:08.957Z,17.20
2019-03-31T15:33:40.508Z,17.20
2019-03-31T15:36:12.204Z,17.20
2019-03-31T15:38:43.652Z,17.20
2019-03-31T15:41:21.239Z,17.20
2019-03-31T15:43:48.652Z,17.20
2019-03-31T15:46:20.173Z,17.10
2019-03-31T15:48:51.674Z,17.10
2019-03-31T15:51:23.357Z,17.00
2019-03-31T15:53:55.561Z,16.90
2019-03-31T15:56:27.108Z,16.90
2019-03-31T15:58:58.922Z,16.90
2019-03-31T16:01:30.476Z,16.90
2019-03-31T16:04:02.414Z,16.80
2019-03-31T16:06:33.941Z,16.70
2019-03-31T16:09:06.053Z,16.80
2019-03-31T16:11:36.712Z,16.70
2019-03-31T16:14:07.719Z,16.80
2019-03-31T16:16:38.377Z,16.60
2019-03-31T16:19:09.581Z,16.70
2019-03-31T16:21:43.991Z,16.60
2019-03-31T16:24:13.043Z,16.60
2019-03-31T16:26:43.754Z,16.60
2019-03-31T16:29:14.423Z,16.60
2019-03-31T16:31:45.420Z,16.60
2019-03-31T16:34:16.360Z,16.60
2019-03-31T16:36:47.197Z,16.50
2019-03-31T16:39:17.939Z,16.40
2019-03-31T16:41:48.618Z,16.40
2019-03-31T16:44:19.365Z,16.30
2019-03-31T16:46:50.374Z,16.30
2019-03-31T16:49:21.362Z,16.30
2019-03-31T16:51:52.008Z,16.20
2019-03-31T16:54:22.690Z,16.10
2019-03-31T16:56:54.900Z,16.20
2019-03-31T16:59:25.569Z,16.10
2019-03-31T17:01:56.699Z,16.00
2019-03-31T17:04:27.507Z,16.00
2019-03-31T17:06:58.445Z,15.90
2019-03-31T17:09:29.093Z,16.00
2019-03-31T17:11:59.949Z,16.00
2019-03-31T17:14:30.657Z,16.10
2019-03-31T17:17:01.651Z,15.90
2019-03-31T17:19:32.397Z,15.80
2019-03-31T17:22:03.099Z,15.90
2019-03-31T17:24:36.702Z,15.80
2019-03-31T17:27:07.805Z,15.80
2019-03-31T17:29:38.511Z,15.60
2019-03-31T17:32:09.679Z,15.70
2019-03-31T17:34:40.644Z,15.40
2019-03-31T17:37:11.866Z,15.30
2019-03-31T17:39:42.572Z,15.20
2019-03-31T17:42:13.294Z,15.30
2019-03-31T17:44:44.079Z,15.20
2019-03-31T17:47:14.723Z,15.10
2019-03-31T17:49:45.579Z,15.10
2019-03-31T17:52:16.575Z,14.90
2019-03-31T17:54:47.248Z,14.80
2019-03-31T17:57:17.920Z,14.80
2019-03-31T17:59:48.689Z,14.50
2019-03-31T18:02:19.699Z,14.50
2019-03-31T18:04:50.747Z,14.40
2019-03-31T18:07:21.794Z,14.30
2019-03-31T18:09:54.265Z,14.30
2019-03-31T18:12:25.193Z,14.30
2019-03-31T18:14:55.802Z,14.20
2019-03-31T18:17:26.640Z,14.20
2019-03-31T18:19:57.639Z,14.10
2019-03-31T18:22:28.717Z,14.00
2019-03-31T18:25:00.364Z,14.00
2019-03-31T18:27:31.133Z,14.00
2019-03-31T18:30:02.060Z,13.90
2019-03-31T18:32:32.803Z,13.90
2019-03-31T18:35:04.163Z,13.80
2019-03-31T18:37:34.866Z,13.70
2019-03-31T18:40:06.963Z,13.60
2019-03-31T18:42:37.807Z,13.50
2019-03-31T18:45:09.261Z,13.50
2019-03-31T18:47:39.966Z,13.50
2019-03-31T18:50:11.039Z,13.40
2019-03-31T18:52:41.884Z,13.30
2019-03-31T18:55:49.915Z,13.30
2019-03-31T18:58:32.686Z,13.30
2019-03-31T19:01:25.919Z,13.10
2019-03-31T19:04:14.447Z,13.00
2019-03-31T19:07:07.011Z,13.00
2019-03-31T19:10:23.745Z,13.00
2019-03-31T19:12:50.791Z,12.90
2019-03-31T19:15:41.068Z,12.90
2019-03-31T19:18:29.248Z,12.70
2019-03-31T19:21:24.372Z,12.70
2019-03-31T19:24:05.833Z,12.60
2019-03-31T19:26:57.847Z,12.50
2019-03-31T19:29:44.701Z,12.50
2019-03-31T19:32:49.732Z,12.40
2019-03-31T19:35:42.074Z,12.30
2019-03-31T19:38:44.097Z,12.20
2019-03-31T19:41:31.377Z,12.10
2019-03-31T19:44:10.470Z,12.20
2019-03-31T19:46:50.325Z,12.20
2019-03-31T19:49:48.607Z,12.10
2019-03-31T19:52:34.615Z,12.00
2019-03-31T19:55:30.361Z,11.90
2019-03-31T19:58:18.740Z,12.00
2019-03-31T20:01:08.261Z,11.80
2019-03-31T20:03:46.899Z,11.70
2019-03-31T20:06:36.975Z,11.70
2019-03-31T20:09:33.857Z,11.70
2019-03-31T20:12:11.266Z,11.70
2019-03-31T20:14:59.247Z,11.80
2019-03-31T20:17:35.856Z,11.70
2019-03-31T20:20:19.913Z,11.50
2019-03-31T20:23:05.140Z,11.40
2019-03-31T20:25:53.502Z,11.10
2019-03-31T20:28:46.069Z,10.90
2019-03-31T20:31:34.510Z,10.70
2019-03-31T20:34:30.497Z,10.90
2019-03-31T20:37:18.710Z,11.00
2019-03-31T20:40:14.374Z,11.10
2019-03-31T20:42:57.348Z,10.80
2019-03-31T20:45:28.426Z,10.90
2019-03-31T20:47:59.327Z,10.90
2019-03-31T20:50:30.059Z,11.10
2019-03-31T20:53:01.215Z,10.90
2019-03-31T20:55:31.927Z,10.90
2019-03-31T20:58:03.290Z,10.80
2019-03-31T21:00:34.115Z,10.70
2019-03-31T21:03:05.091Z,10.80
2019-03-31T21:05:35.968Z,10.70
2019-03-31T21:08:07.647Z,10.60
2019-03-31T21:10:38.599Z,10.50
2019-03-31T21:13:09.588Z,10.30
2019-03-31T21:15:40.376Z,10.20
2019-03-31T21:18:11.125Z,10.30
2019-03-31T21:20:41.891Z,10.20
2019-03-31T21:23:13.201Z,10.10
2019-03-31T21:25:43.902Z,10.10
2019-03-31T21:28:14.906Z,10.00
2019-03-31T21:30:45.604Z,10.00
2019-03-31T21:33:16.317Z,10.00
2019-03-31T21:35:48.633Z,9.80
2019-03-31T21:38:19.533Z,9.80
2019-03-31T21:40:50.200Z,9.80
2019-03-31T21:43:20.888Z,9.80
2019-03-31T21:45:51.721Z,9.60
2019-03-31T21:48:22.400Z,9.60
2019-03-31T21:50:53.068Z,9.50
2019-03-31T21:53:24.035Z,9.50
2019-03-31T21:55:55.514Z,9.50
2019-03-31T21:58:26.222Z,9.60
2019-03-31T22:00:59.538Z,9.50
2019-03-31T22:03:30.242Z,9.40
2019-03-31T22:06:01.154Z,9.40
2019-03-31T22:08:31.894Z,9.40
2019-03-31T22:11:03.240Z,9.30
2019-03-31T22:13:33.988Z,9.40
2019-03-31T22:16:05.227Z,9.40
2019-03-31T22:18:36.165Z,9.30
2019-03-31T22:21:07.018Z,9.20
2019-03-31T22:23:38.027Z,9.20
2019-03-31T22:26:09.318Z,9.00
2019-03-31T22:28:40.032Z,9.00
2019-03-31T22:31:10.672Z,8.90
2019-03-31T22:33:41.353Z,8.80
2019-03-31T22:36:25.215Z,8.80
2019-03-31T22:38:56.259Z,8.80
2019-03-31T22:41:27.210Z,8.70
2019-03-31T22:43:58.211Z,8.70
2019-03-31T22:46:29.049Z,8.60
2019-03-31T22:48:59.763Z,8.60
2019-03-31T22:51:30.348Z,8.50
2019-03-31T22:54:01.466Z,8.50
2019-03-31T22:56:32.110Z,8.50
2019-03-31T22:59:03.322Z,8.40
2019-03-31T23:01:34.141Z,8.30
2019-03-31T23:04:05.236Z,8.30
2019-03-31T23:06:36.210Z,8.20
2019-03-31T23:09:08.709Z,8.20
2019-03-31T23:11:39.380Z,8.20
2019-03-31T23:14:10.349Z,8.10
2019-03-31T23:16:41.227Z,8.10
2019-03-31T23:19:12.360Z,8.10
2019-03-31T23:21:43.272Z,8.00
2019-03-31T23:24:14.209Z,7.90
2019-03-31T23:26:45.155Z,7.70
2019-03-31T23:29:16.103Z,7.70
2019-03-31T23:31:47.012Z,7.60
2019-03-31T23:34:17.662Z,7.50
2019-03-31T23:36:48.361Z,7.30
2019-03-31T23:39:19.315Z,7.40
2019-03-31T23:41:50.257Z,7.40
2019-03-31T23:44:21.150Z,7.30
2019-03-31T23:46:52.127Z,7.20
2019-03-31T23:49:23.069Z,7.30
2019-03-31T23:51:55.399Z,7.30
2019-03-31T23:54:26.288Z,7.20
2019-03-31T23:56:57.285Z,7.20
2019-03-31T23:59:28.113Z,7.10
